sensor_id;sensor_type;location;lat;lon;timestamp;P1;durP1;ratioP1;P2;durP2;ratioP2
19257;SDS011;9763;48.780;9.212;2024-01-10T00:02:44;7.37;;;5.50;;
19257;SDS011;9763;48.780;9.212;2024-01-10T00:06:09;5.33;;;4.53;;
19257;SDS011;9763;48.780;9.212;2024-01-10T00:09:35;13.33;;;6.63;;
19257;SDS011;9763;48.780;9.212;2024-01-10T00:12:59;7.13;;;5.33;;
19257;SDS011;9763;48.780;9.212;2024-01-10T00:16:22;8.53;;;6.07;;
19257;SDS011;9763;48.780;9.212;2024-01-10T00:19:46;7.93;;;5.60;;
19257;SDS011;9763;48.780;9.212;2024-01-10T00:23:10;8.90;;;5.17;;
19257;SDS011;9763;48.780;9.212;2024-01-10T00:26:35;9.93;;;6.50;;
19257;SDS011;9763;48.780;9.212;2024-01-10T00:29:58;8.67;;;5.97;;
19257;SDS011;9763;48.780;9.212;2024-01-10T00:33:22;8.00;;;5.70;;
19257;SDS011;9763;48.780;9.212;2024-01-10T00:36:46;7.93;;;5.43;;
19257;SDS011;9763;48.780;9.212;2024-01-10T00:40:09;8.47;;;5.50;;
19257;SDS011;9763;48.780;9.212;2024-01-10T00:43:35;8.00;;;5.33;;
19257;SDS011;9763;48.780;9.212;2024-01-10T00:46:58;8.83;;;5.57;;
19257;SDS011;9763;48.780;9.212;2024-01-10T00:50:22;7.53;;;5.57;;
19257;SDS011;9763;48.780;9.212;2024-01-10T00:53:46;9.60;;;6.00;;
19257;SDS011;9763;48.780;9.212;2024-01-10T00:57:09;8.70;;;5.57;;
19257;SDS011;9763;48.780;9.212;2024-01-10T01:00:34;6.77;;;5.13;;
19257;SDS011;9763;48.780;9.212;2024-01-10T01:03:58;8.20;;;5.70;;
19257;SDS011;9763;48.780;9.212;2024-01-10T01:07:21;7.93;;;5.10;;
19257;SDS011;9763;48.780;9.212;2024-01-10T01:10:45;8.97;;;5.40;;
19257;SDS011;9763;48.780;9.212;2024-01-10T01:14:09;8.40;;;5.60;;
19257;SDS011;9763;48.780;9.212;2024-01-10T01:17:34;7.50;;;5.60;;
19257;SDS011;9763;48.780;9.212;2024-01-10T01:20:57;7.53;;;5.90;;
19257;SDS011;9763;48.780;9.212;2024-01-10T01:24:21;6.83;;;5.20;;
19257;SDS011;9763;48.780;9.212;2024-01-10T01:27:45;6.80;;;5.13;;
19257;SDS011;9763;48.780;9.212;2024-01-10T01:31:08;6.03;;;4.80;;
19257;SDS011;9763;48.780;9.212;2024-01-10T01:34:33;6.30;;;5.00;;
19257;SDS011;9763;48.780;9.212;2024-01-10T01:37:57;7.90;;;5.57;;
19257;SDS011;9763;48.780;9.212;2024-01-10T01:41:20;7.40;;;5.77;;
19257;SDS011;9763;48.780;9.212;2024-01-10T01:44:44;8.83;;;6.00;;
19257;SDS011;9763;48.780;9.212;2024-01-10T01:48:08;9.20;;;6.20;;
19257;SDS011;9763;48.780;9.212;2024-01-10T01:51:33;8.80;;;6.27;;
19257;SDS011;9763;48.780;9.212;2024-01-10T01:54:59;9.10;;;6.17;;
19257;SDS011;9763;48.780;9.212;2024-01-10T01:58:23;9.50;;;6.20;;
19257;SDS011;9763;48.780;9.212;2024-01-10T02:01:47;10.10;;;5.97;;
19257;SDS011;9763;48.780;9.212;2024-01-10T02:05:11;7.90;;;5.47;;
19257;SDS011;9763;48.780;9.212;2024-01-10T02:08:38;8.20;;;5.37;;
19257;SDS011;9763;48.780;9.212;2024-01-10T02:12:02;6.10;;;4.80;;
19257;SDS011;9763;48.780;9.212;2024-01-10T02:15:26;7.83;;;6.63;;
19257;SDS011;9763;48.780;9.212;2024-01-10T02:18:50;7.07;;;5.47;;
19257;SDS011;9763;48.780;9.212;2024-01-10T02:22:15;7.33;;;5.20;;
19257;SDS011;9763;48.780;9.212;2024-01-10T02:25:40;9.40;;;6.47;;
19257;SDS011;9763;48.780;9.212;2024-01-10T02:29:04;7.90;;;5.70;;
19257;SDS011;9763;48.780;9.212;2024-01-10T02:32:27;7.87;;;5.47;;
19257;SDS011;9763;48.780;9.212;2024-01-10T02:35:52;8.60;;;5.77;;
19257;SDS011;9763;48.780;9.212;2024-01-10T02:39:15;8.33;;;5.77;;
19257;SDS011;9763;48.780;9.212;2024-01-10T02:42:40;8.27;;;5.67;;
19257;SDS011;9763;48.780;9.212;2024-01-10T02:46:04;6.17;;;4.87;;
19257;SDS011;9763;48.780;9.212;2024-01-10T02:49:28;7.50;;;5.17;;
19257;SDS011;9763;48.780;9.212;2024-01-10T02:52:51;7.90;;;5.03;;
19257;SDS011;9763;48.780;9.212;2024-01-10T02:56:15;6.23;;;4.60;;
19257;SDS011;9763;48.780;9.212;2024-01-10T02:59:40;7.77;;;4.90;;
19257;SDS011;9763;48.780;9.212;2024-01-10T03:03:04;7.23;;;4.83;;
19257;SDS011;9763;48.780;9.212;2024-01-10T03:06:27;8.43;;;5.40;;
19257;SDS011;9763;48.780;9.212;2024-01-10T03:09:51;8.03;;;5.70;;
19257;SDS011;9763;48.780;9.212;2024-01-10T03:13:15;8.37;;;5.27;;
19257;SDS011;9763;48.780;9.212;2024-01-10T03:16:39;6.97;;;4.97;;
19257;SDS011;9763;48.780;9.212;2024-01-10T03:20:04;6.53;;;4.70;;
19257;SDS011;9763;48.780;9.212;2024-01-10T03:23:30;8.97;;;6.23;;
19257;SDS011;9763;48.780;9.212;2024-01-10T03:26:53;8.80;;;5.60;;
19257;SDS011;9763;48.780;9.212;2024-01-10T03:30:17;8.43;;;5.50;;
19257;SDS011;9763;48.780;9.212;2024-01-10T03:33:43;7.10;;;5.33;;
19257;SDS011;9763;48.780;9.212;2024-01-10T03:37:07;7.40;;;5.50;;
19257;SDS011;9763;48.780;9.212;2024-01-10T03:40:30;8.40;;;5.73;;
19257;SDS011;9763;48.780;9.212;2024-01-10T03:43:54;10.70;;;6.73;;
19257;SDS011;9763;48.780;9.212;2024-01-10T03:47:17;10.03;;;6.57;;
19257;SDS011;9763;48.780;9.212;2024-01-10T03:50:42;9.60;;;5.57;;
19257;SDS011;9763;48.780;9.212;2024-01-10T03:54:06;7.67;;;5.57;;
19257;SDS011;9763;48.780;9.212;2024-01-10T03:57:30;9.37;;;6.10;;
19257;SDS011;9763;48.780;9.212;2024-01-10T04:00:54;9.63;;;6.80;;
19257;SDS011;9763;48.780;9.212;2024-01-10T04:04:17;9.80;;;6.37;;
19257;SDS011;9763;48.780;9.212;2024-01-10T04:07:42;9.17;;;6.57;;
19257;SDS011;9763;48.780;9.212;2024-01-10T04:11:06;11.70;;;7.27;;
19257;SDS011;9763;48.780;9.212;2024-01-10T04:14:30;8.73;;;6.90;;
19257;SDS011;9763;48.780;9.212;2024-01-10T04:17:54;10.30;;;7.20;;
19257;SDS011;9763;48.780;9.212;2024-01-10T04:21:18;10.03;;;6.73;;
19257;SDS011;9763;48.780;9.212;2024-01-10T04:24:43;8.90;;;6.60;;
19257;SDS011;9763;48.780;9.212;2024-01-10T04:28:06;9.87;;;6.87;;
19257;SDS011;9763;48.780;9.212;2024-01-10T04:31:30;7.23;;;6.50;;
19257;SDS011;9763;48.780;9.212;2024-01-10T04:34:53;11.07;;;6.77;;
19257;SDS011;9763;48.780;9.212;2024-01-10T04:38:18;8.30;;;6.37;;
19257;SDS011;9763;48.780;9.212;2024-01-10T04:41:43;10.60;;;8.10;;
19257;SDS011;9763;48.780;9.212;2024-01-10T04:45:07;10.10;;;7.10;;
19257;SDS011;9763;48.780;9.212;2024-01-10T04:48:31;11.30;;;7.40;;
19257;SDS011;9763;48.780;9.212;2024-01-10T04:51:55;10.27;;;7.50;;
19257;SDS011;9763;48.780;9.212;2024-01-10T04:55:19;9.43;;;7.30;;
19257;SDS011;9763;48.780;9.212;2024-01-10T04:58:44;11.20;;;7.57;;
19257;SDS011;9763;48.780;9.212;2024-01-10T05:02:08;10.87;;;7.10;;
19257;SDS011;9763;48.780;9.212;2024-01-10T05:05:32;11.43;;;7.63;;
19257;SDS011;9763;48.780;9.212;2024-01-10T05:08:56;10.77;;;7.70;;
19257;SDS011;9763;48.780;9.212;2024-01-10T05:12:19;10.47;;;7.93;;
19257;SDS011;9763;48.780;9.212;2024-01-10T05:15:44;9.50;;;8.07;;
19257;SDS011;9763;48.780;9.212;2024-01-10T05:19:08;9.47;;;7.40;;
19257;SDS011;9763;48.780;9.212;2024-01-10T05:22:32;10.63;;;6.97;;
19257;SDS011;9763;48.780;9.212;2024-01-10T05:25:55;9.37;;;6.87;;
19257;SDS011;9763;48.780;9.212;2024-01-10T05:29:19;11.00;;;7.57;;
19257;SDS011;9763;48.780;9.212;2024-01-10T05:32:47;9.80;;;7.17;;
19257;SDS011;9763;48.780;9.212;2024-01-10T05:36:10;9.20;;;6.20;;
19257;SDS011;9763;48.780;9.212;2024-01-10T05:39:34;8.80;;;6.53;;
19257;SDS011;9763;48.780;9.212;2024-01-10T05:42:57;10.10;;;7.83;;
19257;SDS011;9763;48.780;9.212;2024-01-10T05:46:22;8.70;;;6.33;;
19257;SDS011;9763;48.780;9.212;2024-01-10T05:49:47;10.73;;;6.53;;
19257;SDS011;9763;48.780;9.212;2024-01-10T05:53:10;9.77;;;6.60;;
19257;SDS011;9763;48.780;9.212;2024-01-10T05:56:39;9.87;;;6.97;;
19257;SDS011;9763;48.780;9.212;2024-01-10T06:00:02;8.40;;;6.77;;
19257;SDS011;9763;48.780;9.212;2024-01-10T06:03:31;8.10;;;6.40;;
19257;SDS011;9763;48.780;9.212;2024-01-10T06:06:56;9.17;;;6.50;;
19257;SDS011;9763;48.780;9.212;2024-01-10T06:10:22;9.37;;;6.90;;
19257;SDS011;9763;48.780;9.212;2024-01-10T06:13:45;8.07;;;6.23;;
19257;SDS011;9763;48.780;9.212;2024-01-10T06:17:18;8.80;;;7.27;;
19257;SDS011;9763;48.780;9.212;2024-01-10T06:20:41;9.40;;;7.10;;
19257;SDS011;9763;48.780;9.212;2024-01-10T06:24:06;9.53;;;6.30;;
19257;SDS011;9763;48.780;9.212;2024-01-10T06:27:30;10.43;;;6.57;;
19257;SDS011;9763;48.780;9.212;2024-01-10T06:30:53;10.87;;;7.63;;
19257;SDS011;9763;48.780;9.212;2024-01-10T06:34:17;8.47;;;6.60;;
19257;SDS011;9763;48.780;9.212;2024-01-10T06:37:41;9.23;;;7.60;;
19257;SDS011;9763;48.780;9.212;2024-01-10T06:41:08;8.13;;;6.30;;
19257;SDS011;9763;48.780;9.212;2024-01-10T06:44:32;9.27;;;6.17;;
19257;SDS011;9763;48.780;9.212;2024-01-10T06:47:56;9.77;;;6.37;;
19257;SDS011;9763;48.780;9.212;2024-01-10T06:51:19;7.20;;;6.30;;
19257;SDS011;9763;48.780;9.212;2024-01-10T06:54:43;10.13;;;7.17;;
19257;SDS011;9763;48.780;9.212;2024-01-10T06:58:07;9.80;;;6.83;;
19257;SDS011;9763;48.780;9.212;2024-01-10T07:01:31;8.60;;;6.47;;
19257;SDS011;9763;48.780;9.212;2024-01-10T07:04:55;8.10;;;5.67;;
19257;SDS011;9763;48.780;9.212;2024-01-10T07:08:18;11.50;;;6.97;;
19257;SDS011;9763;48.780;9.212;2024-01-10T07:11:42;9.67;;;6.97;;
19257;SDS011;9763;48.780;9.212;2024-01-10T07:15:08;9.20;;;6.60;;
19257;SDS011;9763;48.780;9.212;2024-01-10T07:18:32;8.50;;;6.77;;
19257;SDS011;9763;48.780;9.212;2024-01-10T07:21:56;12.00;;;7.33;;
19257;SDS011;9763;48.780;9.212;2024-01-10T07:25:20;10.83;;;7.07;;
19257;SDS011;9763;48.780;9.212;2024-01-10T07:28:47;7.70;;;6.07;;
19257;SDS011;9763;48.780;9.212;2024-01-10T07:32:11;10.97;;;7.30;;
19257;SDS011;9763;48.780;9.212;2024-01-10T07:35:35;10.50;;;6.17;;
19257;SDS011;9763;48.780;9.212;2024-01-10T07:39:00;8.43;;;6.63;;
19257;SDS011;9763;48.780;9.212;2024-01-10T07:42:26;8.90;;;6.37;;
19257;SDS011;9763;48.780;9.212;2024-01-10T07:45:49;8.10;;;5.97;;
19257;SDS011;9763;48.780;9.212;2024-01-10T07:49:14;9.10;;;6.97;;
19257;SDS011;9763;48.780;9.212;2024-01-10T07:52:38;9.03;;;7.23;;
19257;SDS011;9763;48.780;9.212;2024-01-10T07:56:03;10.00;;;6.90;;
19257;SDS011;9763;48.780;9.212;2024-01-10T07:59:27;12.93;;;8.10;;
19257;SDS011;9763;48.780;9.212;2024-01-10T08:02:51;7.93;;;6.20;;
19257;SDS011;9763;48.780;9.212;2024-01-10T08:06:16;10.57;;;7.70;;
19257;SDS011;9763;48.780;9.212;2024-01-10T08:09:50;10.87;;;7.30;;
19257;SDS011;9763;48.780;9.212;2024-01-10T08:13:13;9.53;;;7.83;;
19257;SDS011;9763;48.780;9.212;2024-01-10T08:16:37;10.47;;;7.67;;
19257;SDS011;9763;48.780;9.212;2024-01-10T08:20:01;13.43;;;8.47;;
19257;SDS011;9763;48.780;9.212;2024-01-10T08:23:27;9.70;;;8.23;;
19257;SDS011;9763;48.780;9.212;2024-01-10T08:26:51;11.43;;;8.33;;
19257;SDS011;9763;48.780;9.212;2024-01-10T08:30:16;11.07;;;8.90;;
19257;SDS011;9763;48.780;9.212;2024-01-10T08:33:39;13.10;;;9.13;;
19257;SDS011;9763;48.780;9.212;2024-01-10T08:37:03;14.83;;;9.60;;
19257;SDS011;9763;48.780;9.212;2024-01-10T08:40:28;14.80;;;9.60;;
19257;SDS011;9763;48.780;9.212;2024-01-10T08:43:55;12.07;;;9.87;;
19257;SDS011;9763;48.780;9.212;2024-01-10T08:47:19;11.03;;;9.30;;
19257;SDS011;9763;48.780;9.212;2024-01-10T08:50:43;14.43;;;10.57;;
19257;SDS011;9763;48.780;9.212;2024-01-10T08:54:07;12.07;;;9.03;;
19257;SDS011;9763;48.780;9.212;2024-01-10T08:57:33;15.23;;;9.77;;
19257;SDS011;9763;48.780;9.212;2024-01-10T09:00:56;13.70;;;10.47;;
19257;SDS011;9763;48.780;9.212;2024-01-10T09:04:20;14.77;;;10.13;;
19257;SDS011;9763;48.780;9.212;2024-01-10T09:07:43;15.50;;;10.80;;
19257;SDS011;9763;48.780;9.212;2024-01-10T09:11:08;13.83;;;9.87;;
19257;SDS011;9763;48.780;9.212;2024-01-10T09:14:34;14.90;;;10.77;;
19257;SDS011;9763;48.780;9.212;2024-01-10T09:17:57;25.77;;;17.20;;
19257;SDS011;9763;48.780;9.212;2024-01-10T09:21:22;24.60;;;15.97;;
19257;SDS011;9763;48.780;9.212;2024-01-10T09:24:46;13.73;;;10.47;;
19257;SDS011;9763;48.780;9.212;2024-01-10T09:28:10;14.90;;;10.27;;
19257;SDS011;9763;48.780;9.212;2024-01-10T09:31:36;14.27;;;10.53;;
19257;SDS011;9763;48.780;9.212;2024-01-10T09:34:59;17.47;;;9.90;;
19257;SDS011;9763;48.780;9.212;2024-01-10T09:38:23;15.80;;;11.00;;
19257;SDS011;9763;48.780;9.212;2024-01-10T09:41:48;15.47;;;10.37;;
19257;SDS011;9763;48.780;9.212;2024-01-10T09:45:13;15.17;;;11.27;;
19257;SDS011;9763;48.780;9.212;2024-01-10T09:48:41;14.20;;;10.23;;
19257;SDS011;9763;48.780;9.212;2024-01-10T09:52:05;14.33;;;11.00;;
19257;SDS011;9763;48.780;9.212;2024-01-10T09:55:34;14.57;;;10.77;;
19257;SDS011;9763;48.780;9.212;2024-01-10T09:59:01;13.97;;;11.07;;
19257;SDS011;9763;48.780;9.212;2024-01-10T10:02:27;16.20;;;12.87;;
19257;SDS011;9763;48.780;9.212;2024-01-10T10:05:53;18.57;;;12.37;;
19257;SDS011;9763;48.780;9.212;2024-01-10T10:09:17;17.50;;;12.93;;
19257;SDS011;9763;48.780;9.212;2024-01-10T10:12:42;19.23;;;12.33;;
19257;SDS011;9763;48.780;9.212;2024-01-10T10:16:06;16.63;;;13.07;;
19257;SDS011;9763;48.780;9.212;2024-01-10T10:19:34;19.23;;;13.00;;
19257;SDS011;9763;48.780;9.212;2024-01-10T10:23:04;21.17;;;12.77;;
19257;SDS011;9763;48.780;9.212;2024-01-10T10:26:32;17.97;;;13.03;;
19257;SDS011;9763;48.780;9.212;2024-01-10T10:29:57;16.83;;;13.30;;
19257;SDS011;9763;48.780;9.212;2024-01-10T10:33:21;17.60;;;13.23;;
19257;SDS011;9763;48.780;9.212;2024-01-10T10:36:45;18.47;;;14.33;;
19257;SDS011;9763;48.780;9.212;2024-01-10T10:40:11;16.50;;;12.90;;
19257;SDS011;9763;48.780;9.212;2024-01-10T10:43:36;20.57;;;14.00;;
19257;SDS011;9763;48.780;9.212;2024-01-10T10:47:03;17.43;;;13.40;;
19257;SDS011;9763;48.780;9.212;2024-01-10T10:50:35;18.57;;;14.37;;
19257;SDS011;9763;48.780;9.212;2024-01-10T10:53:59;16.70;;;14.10;;
19257;SDS011;9763;48.780;9.212;2024-01-10T10:57:25;13.60;;;9.93;;
19257;SDS011;9763;48.780;9.212;2024-01-10T11:00:50;10.57;;;8.90;;
19257;SDS011;9763;48.780;9.212;2024-01-10T11:04:15;9.70;;;7.43;;
19257;SDS011;9763;48.780;9.212;2024-01-10T11:07:40;9.80;;;8.47;;
19257;SDS011;9763;48.780;9.212;2024-01-10T11:11:07;11.70;;;9.50;;
19257;SDS011;9763;48.780;9.212;2024-01-10T11:14:53;11.50;;;9.60;;
19257;SDS011;9763;48.780;9.212;2024-01-10T11:18:51;10.87;;;9.70;;
19257;SDS011;9763;48.780;9.212;2024-01-10T11:22:46;12.33;;;9.20;;
19257;SDS011;9763;48.780;9.212;2024-01-10T11:26:26;10.67;;;9.00;;
19257;SDS011;9763;48.780;9.212;2024-01-10T11:29:52;11.40;;;10.20;;
19257;SDS011;9763;48.780;9.212;2024-01-10T11:33:19;12.60;;;10.17;;
19257;SDS011;9763;48.780;9.212;2024-01-10T11:40:46;12.10;;;10.57;;
19257;SDS011;9763;48.780;9.212;2024-01-10T11:44:25;11.70;;;9.90;;
19257;SDS011;9763;48.780;9.212;2024-01-10T11:47:52;13.03;;;10.77;;
19257;SDS011;9763;48.780;9.212;2024-01-10T11:51:16;15.57;;;11.07;;
19257;SDS011;9763;48.780;9.212;2024-01-10T11:54:41;17.30;;;13.30;;
19257;SDS011;9763;48.780;9.212;2024-01-10T11:58:08;17.00;;;13.80;;
19257;SDS011;9763;48.780;9.212;2024-01-10T12:01:34;16.03;;;12.93;;
19257;SDS011;9763;48.780;9.212;2024-01-10T12:05:01;15.23;;;12.20;;
19257;SDS011;9763;48.780;9.212;2024-01-10T12:08:26;19.63;;;15.10;;
19257;SDS011;9763;48.780;9.212;2024-01-10T12:11:50;20.10;;;13.57;;
19257;SDS011;9763;48.780;9.212;2024-01-10T12:15:13;17.63;;;14.00;;
19257;SDS011;9763;48.780;9.212;2024-01-10T12:18:38;17.33;;;13.63;;
19257;SDS011;9763;48.780;9.212;2024-01-10T12:22:03;16.83;;;14.03;;
19257;SDS011;9763;48.780;9.212;2024-01-10T12:25:29;18.90;;;14.50;;
19257;SDS011;9763;48.780;9.212;2024-01-10T12:28:53;17.73;;;14.23;;
19257;SDS011;9763;48.780;9.212;2024-01-10T12:32:18;19.33;;;15.13;;
19257;SDS011;9763;48.780;9.212;2024-01-10T12:35:44;22.53;;;17.33;;
19257;SDS011;9763;48.780;9.212;2024-01-10T12:39:27;21.33;;;16.23;;
19257;SDS011;9763;48.780;9.212;2024-01-10T12:43:01;22.90;;;16.67;;
19257;SDS011;9763;48.780;9.212;2024-01-10T12:46:25;22.83;;;14.37;;
19257;SDS011;9763;48.780;9.212;2024-01-10T12:49:49;20.83;;;15.07;;
19257;SDS011;9763;48.780;9.212;2024-01-10T12:53:13;19.30;;;14.93;;
19257;SDS011;9763;48.780;9.212;2024-01-10T12:56:39;23.00;;;17.00;;
19257;SDS011;9763;48.780;9.212;2024-01-10T13:00:03;20.90;;;15.73;;
19257;SDS011;9763;48.780;9.212;2024-01-10T13:03:28;20.93;;;15.73;;
19257;SDS011;9763;48.780;9.212;2024-01-10T13:06:53;19.87;;;14.67;;
19257;SDS011;9763;48.780;9.212;2024-01-10T13:10:17;19.33;;;15.47;;
19257;SDS011;9763;48.780;9.212;2024-01-10T13:13:42;20.13;;;15.17;;
19257;SDS011;9763;48.780;9.212;2024-01-10T13:17:06;16.00;;;13.30;;
19257;SDS011;9763;48.780;9.212;2024-01-10T13:20:30;19.33;;;13.63;;
19257;SDS011;9763;48.780;9.212;2024-01-10T13:23:54;19.30;;;14.87;;
19257;SDS011;9763;48.780;9.212;2024-01-10T13:27:17;16.03;;;13.60;;
19257;SDS011;9763;48.780;9.212;2024-01-10T13:30:44;21.70;;;15.33;;
19257;SDS011;9763;48.780;9.212;2024-01-10T13:34:08;20.90;;;14.93;;
19257;SDS011;9763;48.780;9.212;2024-01-10T13:37:33;19.13;;;15.30;;
19257;SDS011;9763;48.780;9.212;2024-01-10T13:40:56;17.43;;;13.80;;
19257;SDS011;9763;48.780;9.212;2024-01-10T13:44:21;19.87;;;14.80;;
19257;SDS011;9763;48.780;9.212;2024-01-10T13:47:46;18.63;;;14.63;;
19257;SDS011;9763;48.780;9.212;2024-01-10T13:51:10;20.63;;;16.03;;
19257;SDS011;9763;48.780;9.212;2024-01-10T13:54:34;17.57;;;14.63;;
19257;SDS011;9763;48.780;9.212;2024-01-10T13:57:58;22.47;;;16.30;;
19257;SDS011;9763;48.780;9.212;2024-01-10T14:01:22;22.60;;;15.33;;
19257;SDS011;9763;48.780;9.212;2024-01-10T14:04:47;21.40;;;15.20;;
19257;SDS011;9763;48.780;9.212;2024-01-10T14:08:10;17.00;;;14.40;;
19257;SDS011;9763;48.780;9.212;2024-01-10T14:11:35;21.93;;;16.20;;
19257;SDS011;9763;48.780;9.212;2024-01-10T14:14:58;18.43;;;14.47;;
19257;SDS011;9763;48.780;9.212;2024-01-10T14:18:24;20.63;;;13.90;;
19257;SDS011;9763;48.780;9.212;2024-01-10T14:21:49;18.37;;;14.13;;
19257;SDS011;9763;48.780;9.212;2024-01-10T14:25:13;18.83;;;13.70;;
19257;SDS011;9763;48.780;9.212;2024-01-10T14:28:36;21.40;;;14.07;;
19257;SDS011;9763;48.780;9.212;2024-01-10T14:32:01;20.70;;;13.57;;
19257;SDS011;9763;48.780;9.212;2024-01-10T14:35:29;20.20;;;14.87;;
19257;SDS011;9763;48.780;9.212;2024-01-10T14:38:56;20.13;;;14.87;;
19257;SDS011;9763;48.780;9.212;2024-01-10T14:42:19;19.90;;;14.43;;
19257;SDS011;9763;48.780;9.212;2024-01-10T14:45:43;21.80;;;14.10;;
19257;SDS011;9763;48.780;9.212;2024-01-10T14:49:06;21.27;;;15.90;;
19257;SDS011;9763;48.780;9.212;2024-01-10T14:52:30;22.73;;;16.13;;
19257;SDS011;9763;48.780;9.212;2024-01-10T14:55:56;22.23;;;15.80;;
19257;SDS011;9763;48.780;9.212;2024-01-10T14:59:20;22.37;;;14.77;;
19257;SDS011;9763;48.780;9.212;2024-01-10T15:03:01;21.70;;;14.37;;
19257;SDS011;9763;48.780;9.212;2024-01-10T15:06:36;20.20;;;15.40;;
19257;SDS011;9763;48.780;9.212;2024-01-10T15:10:05;21.70;;;14.80;;
19257;SDS011;9763;48.780;9.212;2024-01-10T15:13:31;19.90;;;14.13;;
19257;SDS011;9763;48.780;9.212;2024-01-10T15:16:56;19.80;;;14.77;;
19257;SDS011;9763;48.780;9.212;2024-01-10T15:20:20;17.20;;;13.20;;
19257;SDS011;9763;48.780;9.212;2024-01-10T15:23:45;19.73;;;14.30;;
19257;SDS011;9763;48.780;9.212;2024-01-10T15:27:09;19.90;;;13.60;;
19257;SDS011;9763;48.780;9.212;2024-01-10T15:30:35;19.13;;;15.10;;
19257;SDS011;9763;48.780;9.212;2024-01-10T15:34:08;25.50;;;18.67;;
19257;SDS011;9763;48.780;9.212;2024-01-10T15:37:32;19.27;;;14.17;;
19257;SDS011;9763;48.780;9.212;2024-01-10T15:40:55;21.20;;;16.23;;
19257;SDS011;9763;48.780;9.212;2024-01-10T15:44:22;23.70;;;16.20;;
19257;SDS011;9763;48.780;9.212;2024-01-10T15:47:47;22.20;;;16.30;;
19257;SDS011;9763;48.780;9.212;2024-01-10T15:51:11;20.50;;;15.00;;
19257;SDS011;9763;48.780;9.212;2024-01-10T15:54:35;21.23;;;15.20;;
19257;SDS011;9763;48.780;9.212;2024-01-10T15:58:00;17.27;;;13.63;;
19257;SDS011;9763;48.780;9.212;2024-01-10T16:01:24;20.47;;;15.00;;
19257;SDS011;9763;48.780;9.212;2024-01-10T16:04:49;19.20;;;14.10;;
19257;SDS011;9763;48.780;9.212;2024-01-10T16:08:12;17.97;;;13.07;;
19257;SDS011;9763;48.780;9.212;2024-01-10T16:11:39;20.67;;;13.50;;
19257;SDS011;9763;48.780;9.212;2024-01-10T16:15:04;22.40;;;15.30;;
19257;SDS011;9763;48.780;9.212;2024-01-10T16:18:29;20.20;;;14.10;;
19257;SDS011;9763;48.780;9.212;2024-01-10T16:21:54;20.10;;;14.40;;
19257;SDS011;9763;48.780;9.212;2024-01-10T16:25:18;18.47;;;13.70;;
19257;SDS011;9763;48.780;9.212;2024-01-10T16:28:42;16.40;;;12.43;;
19257;SDS011;9763;48.780;9.212;2024-01-10T16:32:06;18.57;;;13.60;;
19257;SDS011;9763;48.780;9.212;2024-01-10T16:35:30;19.77;;;14.10;;
19257;SDS011;9763;48.780;9.212;2024-01-10T16:38:55;21.87;;;15.37;;
19257;SDS011;9763;48.780;9.212;2024-01-10T16:42:19;19.77;;;13.27;;
19257;SDS011;9763;48.780;9.212;2024-01-10T16:45:42;17.47;;;13.50;;
19257;SDS011;9763;48.780;9.212;2024-01-10T16:49:06;24.77;;;13.33;;
19257;SDS011;9763;48.780;9.212;2024-01-10T16:52:29;15.77;;;13.17;;
19257;SDS011;9763;48.780;9.212;2024-01-10T16:55:54;19.17;;;14.47;;
19257;SDS011;9763;48.780;9.212;2024-01-10T16:59:18;17.20;;;13.57;;
19257;SDS011;9763;48.780;9.212;2024-01-10T17:02:43;19.40;;;14.50;;
19257;SDS011;9763;48.780;9.212;2024-01-10T17:06:08;20.43;;;13.43;;
19257;SDS011;9763;48.780;9.212;2024-01-10T17:09:32;18.10;;;13.63;;
19257;SDS011;9763;48.780;9.212;2024-01-10T17:12:58;19.80;;;12.90;;
19257;SDS011;9763;48.780;9.212;2024-01-10T17:16:22;16.83;;;12.67;;
19257;SDS011;9763;48.780;9.212;2024-01-10T17:19:46;19.07;;;14.13;;
19257;SDS011;9763;48.780;9.212;2024-01-10T17:23:11;17.97;;;12.90;;
19257;SDS011;9763;48.780;9.212;2024-01-10T17:26:37;18.10;;;12.80;;
19257;SDS011;9763;48.780;9.212;2024-01-10T17:30:03;21.30;;;12.07;;
19257;SDS011;9763;48.780;9.212;2024-01-10T17:33:28;16.87;;;12.40;;
19257;SDS011;9763;48.780;9.212;2024-01-10T17:36:53;17.40;;;12.50;;
19257;SDS011;9763;48.780;9.212;2024-01-10T17:40:17;16.30;;;12.83;;
19257;SDS011;9763;48.780;9.212;2024-01-10T17:43:40;18.10;;;13.60;;
19257;SDS011;9763;48.780;9.212;2024-01-10T17:47:05;20.40;;;14.00;;
19257;SDS011;9763;48.780;9.212;2024-01-10T17:50:31;20.60;;;14.93;;
19257;SDS011;9763;48.780;9.212;2024-01-10T17:53:55;17.93;;;13.33;;
19257;SDS011;9763;48.780;9.212;2024-01-10T17:57:18;18.33;;;13.47;;
19257;SDS011;9763;48.780;9.212;2024-01-10T18:00:45;16.13;;;12.20;;
19257;SDS011;9763;48.780;9.212;2024-01-10T18:04:10;20.43;;;14.37;;
19257;SDS011;9763;48.780;9.212;2024-01-10T18:07:36;20.17;;;12.17;;
19257;SDS011;9763;48.780;9.212;2024-01-10T18:10:59;18.10;;;12.10;;
19257;SDS011;9763;48.780;9.212;2024-01-10T18:14:23;18.50;;;13.33;;
19257;SDS011;9763;48.780;9.212;2024-01-10T18:17:46;16.70;;;12.43;;
19257;SDS011;9763;48.780;9.212;2024-01-10T18:21:11;19.67;;;13.40;;
19257;SDS011;9763;48.780;9.212;2024-01-10T18:24:36;19.60;;;13.50;;
19257;SDS011;9763;48.780;9.212;2024-01-10T18:28:00;14.90;;;11.50;;
19257;SDS011;9763;48.780;9.212;2024-01-10T18:31:23;17.50;;;12.87;;
19257;SDS011;9763;48.780;9.212;2024-01-10T18:34:47;17.60;;;13.07;;
19257;SDS011;9763;48.780;9.212;2024-01-10T18:38:12;17.10;;;11.90;;
19257;SDS011;9763;48.780;9.212;2024-01-10T18:41:38;17.20;;;12.63;;
19257;SDS011;9763;48.780;9.212;2024-01-10T18:45:03;18.33;;;12.70;;
19257;SDS011;9763;48.780;9.212;2024-01-10T18:48:27;18.90;;;13.60;;
19257;SDS011;9763;48.780;9.212;2024-01-10T18:51:51;19.00;;;13.13;;
19257;SDS011;9763;48.780;9.212;2024-01-10T18:55:19;17.47;;;12.90;;
19257;SDS011;9763;48.780;9.212;2024-01-10T18:58:43;15.80;;;12.00;;
19257;SDS011;9763;48.780;9.212;2024-01-10T19:02:07;16.43;;;11.80;;
19257;SDS011;9763;48.780;9.212;2024-01-10T19:05:30;17.60;;;12.67;;
19257;SDS011;9763;48.780;9.212;2024-01-10T19:08:54;16.00;;;12.67;;
19257;SDS011;9763;48.780;9.212;2024-01-10T19:12:19;18.10;;;13.07;;
19257;SDS011;9763;48.780;9.212;2024-01-10T19:15:43;17.60;;;12.60;;
19257;SDS011;9763;48.780;9.212;2024-01-10T19:19:07;17.60;;;12.00;;
19257;SDS011;9763;48.780;9.212;2024-01-10T19:22:30;18.67;;;13.70;;
19257;SDS011;9763;48.780;9.212;2024-01-10T19:25:54;16.80;;;11.87;;
19257;SDS011;9763;48.780;9.212;2024-01-10T19:29:20;19.80;;;12.60;;
19257;SDS011;9763;48.780;9.212;2024-01-10T19:32:44;20.37;;;12.70;;
19257;SDS011;9763;48.780;9.212;2024-01-10T19:36:07;16.27;;;11.50;;
19257;SDS011;9763;48.780;9.212;2024-01-10T19:39:32;22.80;;;14.77;;
19257;SDS011;9763;48.780;9.212;2024-01-10T19:42:56;19.27;;;11.07;;
19257;SDS011;9763;48.780;9.212;2024-01-10T19:46:21;16.00;;;11.63;;
19257;SDS011;9763;48.780;9.212;2024-01-10T19:49:44;16.37;;;11.27;;
19257;SDS011;9763;48.780;9.212;2024-01-10T19:53:08;16.37;;;11.80;;
19257;SDS011;9763;48.780;9.212;2024-01-10T19:56:32;21.27;;;13.37;;
19257;SDS011;9763;48.780;9.212;2024-01-10T19:59:56;19.60;;;13.00;;
19257;SDS011;9763;48.780;9.212;2024-01-10T20:03:21;15.70;;;11.50;;
19257;SDS011;9763;48.780;9.212;2024-01-10T20:06:45;17.00;;;12.00;;
19257;SDS011;9763;48.780;9.212;2024-01-10T20:10:09;16.73;;;11.27;;
19257;SDS011;9763;48.780;9.212;2024-01-10T20:13:34;17.67;;;11.50;;
19257;SDS011;9763;48.780;9.212;2024-01-10T20:16:59;15.33;;;11.27;;
19257;SDS011;9763;48.780;9.212;2024-01-10T20:20:24;16.07;;;11.77;;
19257;SDS011;9763;48.780;9.212;2024-01-10T20:23:51;15.97;;;11.97;;
19257;SDS011;9763;48.780;9.212;2024-01-10T20:27:14;17.10;;;12.40;;
19257;SDS011;9763;48.780;9.212;2024-01-10T20:30:39;16.50;;;11.20;;
19257;SDS011;9763;48.780;9.212;2024-01-10T20:34:03;17.37;;;12.63;;
19257;SDS011;9763;48.780;9.212;2024-01-10T20:37:28;17.30;;;12.17;;